Stations météo

réclame
Mon MeteoGroup
Lycksele, Suède (2262): Température de l'air & dewpoint: 10.06.2019 00:00:00 - 16.06.2019 00:00:00 (CEST)Lycksele, Suède (2262): Vitesse du vent: 10.06.2019 00:00:00 - 16.06.2019 00:00:00 (CEST)Lycksele, Suède (2262): Direction du vent: 10.06.2019 00:00:00 - 16.06.2019 00:00:00 (CEST)Lycksele, Suède (2262): visibility: 10.06.2019 00:00:00 - 16.06.2019 00:00:00 (CEST)
Date & Time tt [°C] td [°C] ff [km/h] ff [knt] dd vv [km]
16.06.2019 00:00:00 12,0 9,0 4 2 - 10
15.06.2019 23:00:00 16,0 9,0 8 4 ESE 10
15.06.2019 22:00:00 19,0 9,0 9 5 ESE 10
15.06.2019 21:00:00 21,0 7,0 5 3 S 10
15.06.2019 20:00:00 24,0 6,0 5 3 W 10
15.06.2019 19:00:00 24,0 6,0 9 5 WSW 10
15.06.2019 18:00:00 25,0 6,0 9 5 NW 10
15.06.2019 17:00:00 25,0 7,0 8 4 E 10
15.06.2019 16:00:00 23,0 6,0 9 5 W 10
15.06.2019 15:00:00 24,0 6,0 8 4 - 10
15.06.2019 14:00:00 23,0 7,0 8 4 SSE 10
15.06.2019 13:00:00 21,0 7,0 2 1 - 10
15.06.2019 12:00:00 22,0 6,0 5 3 - 10
15.06.2019 11:00:00 21,0 8,0 4 2 - 10
15.06.2019 10:00:00 19,0 9,0 4 2 - 10
15.06.2019 09:00:00 18,0 10,0 5 3 - 10
15.06.2019 08:00:00 16,0 9,0 8 4 W 10
15.06.2019 07:00:00 14,0 9,0 4 2 WNW 10
15.06.2019 06:00:00 14,0 9,0 8 4 NNW 10
15.06.2019 05:00:00 13,0 8,0 0 0 N 10
15.06.2019 04:00:00 13,0 8,0 4 2 - 10
15.06.2019 03:00:00 13,0 7,0 5 3 - 10
15.06.2019 02:00:00 14,0 7,0 5 3 NW 10
15.06.2019 01:00:00 14,0 7,0 2 1 - 10
15.06.2019 00:00:00 14,0 7,0 2 1 - 10
14.06.2019 23:00:00 15,0 7,0 4 2 - 10
14.06.2019 22:00:00 15,0 7,0 5 3 SW 10
14.06.2019 21:00:00 16,0 8,0 11 6 WSW 10
14.06.2019 20:00:00 18,0 8,0 9 5 SW 10
14.06.2019 19:00:00 21,0 3,0 8 4 E 10
14.06.2019 18:00:00 21,0 4,0 9 5 NE 10
14.06.2019 17:00:00 21,0 4,0 8 4 SSE 10
14.06.2019 16:00:00 22,0 3,0 8 4 E 10
14.06.2019 15:00:00 22,0 3,0 11 6 SSE 10
14.06.2019 14:00:00 21,0 0,0 9 5 ENE 10
14.06.2019 13:00:00 20,0 -4,0 11 6 E 10
14.06.2019 12:00:00 20,0 0,0 13 7 NE 10
14.06.2019 11:00:00 18,0 2,0 13 7 E 10
14.06.2019 10:00:00 17,0 3,0 11 6 ENE 10
14.06.2019 09:00:00 16,0 4,0 8 4 E 10
14.06.2019 08:00:00 14,0 4,0 5 3 - 10
14.06.2019 07:00:00 13,0 4,0 8 4 NW 10
14.06.2019 06:00:00 12,0 4,0 4 2 - 10
14.06.2019 05:00:00 11,0 4,0 9 5 NNW 10
14.06.2019 04:00:00 11,0 4,0 8 4 NNW 10
14.06.2019 03:00:00 10,0 4,0 8 4 N 10
14.06.2019 02:00:00 11,0 4,0 4 2 NNW 10
14.06.2019 01:00:00 11,0 3,0 8 4 NE 10
14.06.2019 00:00:00 11,0 3,0 5 3 E 10
13.06.2019 23:00:00 12,0 3,0 8 4 E 10
13.06.2019 22:00:00 12,0 3,0 11 6 E 10
13.06.2019 21:00:00 12,0 4,0 9 5 ENE 10
13.06.2019 20:00:00 13,0 4,0 13 7 ENE 10
13.06.2019 19:00:00 14,0 4,0 11 6 ENE 10
13.06.2019 18:00:00 14,0 4,0 16 9 E 10
13.06.2019 17:00:00 14,0 3,0 15 8 E 10
13.06.2019 16:00:00 14,0 2,0 16 9 E 10
13.06.2019 15:00:00 14,0 1,0 21 11 E 10
13.06.2019 14:00:00 14,0 2,0 18 10 ESE 10
13.06.2019 13:00:00 14,0 3,0 21 11 E 10
13.06.2019 12:00:00 14,0 4,0 18 10 E 10
13.06.2019 11:00:00 14,0 5,0 16 9 E 10
13.06.2019 10:00:00 13,0 5,0 9 5 E 10
13.06.2019 09:00:00 12,0 4,0 13 7 ESE 10
13.06.2019 08:00:00 12,0 4,0 15 8 ESE 10
13.06.2019 07:00:00 10,0 3,0 11 6 ESE 10
13.06.2019 06:00:00 - - - - - -
13.06.2019 05:00:00 9,0 2,0 2 1 - 10
13.06.2019 04:00:00 8,0 1,0 9 5 ESE 10
13.06.2019 03:00:00 9,0 1,0 11 6 ESE 10
13.06.2019 02:00:00 9,0 0,0 13 7 ESE 10
13.06.2019 01:00:00 9,0 1,0 5 3 SE 10
13.06.2019 00:00:00 9,0 1,0 11 6 SSE 10
12.06.2019 23:00:00 10,0 0,0 11 6 SE 10
12.06.2019 22:00:00 11,0 0,0 15 8 ESE 10
12.06.2019 21:00:00 12,0 0,0 11 6 SE 10
12.06.2019 20:00:00 13,0 -1,0 18 10 SE 10
12.06.2019 19:00:00 14,0 -1,0 18 10 SE 10
12.06.2019 18:00:00 15,0 -1,0 18 10 SSE 10
12.06.2019 17:00:00 16,0 -1,0 13 7 E 10
12.06.2019 16:00:00 15,0 -2,0 16 9 SE 10
12.06.2019 15:00:00 15,0 -2,0 13 7 E 10
12.06.2019 14:00:00 15,0 -1,0 13 7 SE 10
12.06.2019 13:00:00 15,0 -1,0 13 7 SE 10
12.06.2019 12:00:00 14,0 -1,0 15 8 SE 10
12.06.2019 11:00:00 13,0 -1,0 13 7 ESE 10
12.06.2019 10:00:00 12,0 0,0 11 6 E 10
12.06.2019 09:00:00 11,0 0,0 9 5 ESE 10
12.06.2019 08:00:00 10,0 -1,0 11 6 SE 10
12.06.2019 07:00:00 8,0 0,0 9 5 SSE 10
12.06.2019 06:00:00 6,0 1,0 11 6 ESE 10
12.06.2019 05:00:00 4,0 2,0 0 0 N 10
12.06.2019 04:00:00 0,0 -1,0 2 1 - 10
12.06.2019 03:00:00 0,0 0,0 5 3 SSE 10
12.06.2019 02:00:00 2,0 1,0 8 4 SSE 10
12.06.2019 01:00:00 5,0 1,0 8 4 SE 10
12.06.2019 00:00:00 7,0 2,0 15 8 ESE 10
11.06.2019 23:00:00 7,0 3,0 8 4 ESE 10
11.06.2019 22:00:00 11,0 2,0 9 5 E 10
11.06.2019 21:00:00 12,0 1,0 9 5 ENE 10
11.06.2019 20:00:00 13,0 1,0 8 4 NE 10
11.06.2019 19:00:00 13,0 2,0 9 5 ESE 10
11.06.2019 18:00:00 12,0 2,0 5 3 NNE 10
11.06.2019 17:00:00 12,0 3,0 8 4 SSE 10
11.06.2019 16:00:00 12,0 3,0 8 4 NNE 10
11.06.2019 15:00:00 12,0 3,0 8 4 ENE 10
11.06.2019 14:00:00 11,0 3,0 8 4 SE 10
11.06.2019 13:00:00 11,0 3,0 11 6 SE 10
11.06.2019 12:00:00 10,0 3,0 9 5 S 10
11.06.2019 11:00:00 9,0 4,0 11 6 ESE 10
11.06.2019 10:00:00 8,0 5,0 11 6 E 10
11.06.2019 09:00:00 8,0 5,0 13 7 E 10
11.06.2019 08:00:00 8,0 5,0 11 6 E 10
11.06.2019 07:00:00 9,0 5,0 9 5 ENE 10
11.06.2019 06:00:00 9,0 5,0 9 5 NE 10
11.06.2019 05:00:00 8,0 4,0 5 3 WSW 10
11.06.2019 04:00:00 8,0 4,0 8 4 WSW 10
11.06.2019 03:00:00 8,0 4,0 8 4 WSW 10
11.06.2019 02:00:00 8,0 4,0 5 3 - 10
11.06.2019 01:00:00 8,0 3,0 5 3 - 10
11.06.2019 00:00:00 9,0 3,0 9 5 WNW 10
10.06.2019 23:00:00 11,0 3,0 22 12 NW 10
10.06.2019 22:00:00 13,0 4,0 22 12 NW 10
10.06.2019 21:00:00 14,0 4,0 18 10 W 10
10.06.2019 20:00:00 15,0 3,0 22 12 W 10
10.06.2019 19:00:00 15,0 4,0 24 13 W 10
10.06.2019 18:00:00 15,0 4,0 22 12 W 10
10.06.2019 17:00:00 16,0 4,0 24 13 W 10
10.06.2019 16:00:00 16,0 4,0 24 13 W 10
10.06.2019 15:00:00 16,0 4,0 29 16 W 10
10.06.2019 14:00:00 16,0 4,0 28 15 W 10
10.06.2019 13:00:00 16,0 5,0 24 13 W 10
10.06.2019 12:00:00 15,0 4,0 24 13 W 10
10.06.2019 11:00:00 16,0 5,0 22 12 WSW 10
10.06.2019 10:00:00 16,0 7,0 22 12 W 10
10.06.2019 09:00:00 16,0 7,0 18 10 W 10
10.06.2019 08:00:00 17,0 7,0 21 11 W 10
10.06.2019 07:00:00 15,0 8,0 11 6 W 10
10.06.2019 06:00:00 - - - - - -
10.06.2019 05:00:00 12,0 9,0 11 6 WSW 10
10.06.2019 04:00:00 12,0 9,0 11 6 WSW 10
10.06.2019 03:00:00 11,0 8,0 0 0 N 10
10.06.2019 02:00:00 12,0 8,0 0 0 N 10
10.06.2019 01:00:00 13,0 8,0 5 3 SSE 10
10.06.2019 00:00:00 13,0 8,0 8 4 SE 10

tt = Température de l'air
td = dewpoint
ff = Vitesse du vent
dd = Direction du vent
vv = visibility

stations d'obs. à proximité